Omaha, NE (68135)

12:38 PM CDT on July 06, 2015 (GMT -0500)
Prairie Point 163rd and Q St | | Change Station
CLOSE
Current Station
Personal Weather Station
Location: Omaha, NE
Elevation: 1200 ft
Nearby Weather Stations

Elev 1200 ft 41.21 °N, 96.17 °W | Updated 28 seconds ago

Overcast
Overcast
71.2 °F
Feels Like 71.2 °F
N
0.0
Wind Variable Wind from WSW
Gusts 5.0 mph

Today
High -- | Low -- °F
--% Chance of Precip.
Yesterday
High -- | Low -- °F
Precip. -- in
5:58 AM 9:00 PM
Waning Gibbous, 73% visible
Pressure 29.91 in
Visibility 5.0 miles
Clouds Scattered Clouds 1400 ft
Overcast 2900 ft
Dew Point 71 °F
Humidity 100%
Rainfall 0.62 in
Snow Depth Not available.
UV 3 out of 12
Pollen 1.60 out of 12
Air Quality Not available.
Flu Activity Not available.
METAR KMLE 061715Z AUTO 27004KT 5SM +RA SCT014 OVC029 24/22 A2991 RMK AO2 LTG DSNT SW T02400220

More Conditions Fewer Conditions

Pressure 29.91 in
Visibility 5.0 miles
Clouds Scattered Clouds 1400 ft
Overcast 2900 ft
Dew Point 71 °F
Humidity 100%
Rainfall 0.62 in
Snow Depth Not available.
UV 3 out of 12
Pollen 1.60 out of 12
Air Quality Not available.
Flu Activity Not available.
METAR KMLE 061715Z AUTO 27004KT 5SM +RA SCT014 OVC029 24/22 A2991 RMK AO2 LTG DSNT SW T02400220

More Conditions Fewer Conditions

10-Day Weather Forecast

×

Almanac

Astronomy

Jul. 06, 2015 Rise Set
Actual Time
Civil Twilight
Nautical Twilight
Astronomical Twilight
Moon
Length of Visible Light
Length of Day
Tomorrow will be .
, % of the Moon is Illuminated

Today's Extremes

State Highs State Lows

Community

WunderPhotos

Upload Photos

1,835,607 photos uploaded!

WunderBlogs® & News

Nearby

Air Quality

  Air Quality AQ Index Pollutant
Not available.

Snow Depth

Station Depth Elevation

Earthquake Activity

City Distance Mag. Time & Date
Minimum magnitude displayed is 2.5.

Coastal Water Temperatures

Place Temperature

Stations

Nearby Weather Stations

Station Location Temp. Windchill Dew Point Humidity Wind Precip. Elev Updated Type